Time;durP1;ratioP1;P1;durP2;ratioP2;P2;SDS_P1;SDS_P2;PMS_P1;PMS_P2;Temp;Humidity;BMP_temperature;BMP_pressure;BME280_temperature;BME280_humidity;BME280_pressure;Samples;Min_cycle;Max_cycle;Signal;HPM_P1;HPM_P2
2023/07/02 00:02:37;;;;;;;6.53;3.50;;;;;17.50;96133.00;;;;5067092;28;20239;-88
2023/07/02 00:05:27;;;;;;;7.23;3.73;;;;;17.50;96125.00;;;;5065856;28;20203;-89
2023/07/02 00:08:16;;;;;;;5.37;3.60;;;;;17.30;96132.00;;;;5068820;28;20204;-88
2023/07/02 00:11:06;;;;;;;5.30;4.40;;;;;17.30;96136.00;;;;5055985;28;20420;-88
2023/07/02 00:13:55;;;;;;;5.45;4.28;;;;;17.00;96124.00;;;;5063524;28;20408;-88
2023/07/02 00:16:46;;;;;;;7.07;3.87;;;;;17.20;96138.00;;;;5060529;28;20200;-88
2023/07/02 00:19:35;;;;;;;5.00;4.00;;;;;16.90;96135.00;;;;5065094;28;20258;-88
2023/07/02 00:22:24;;;;;;;5.63;3.87;;;;;17.20;96135.00;;;;5067127;28;20235;-87
2023/07/02 00:25:15;;;;;;;5.27;4.20;;;;;17.10;96139.00;;;;5064848;28;20195;-88
2023/07/02 00:28:06;;;;;;;5.97;3.33;;;;;17.00;96132.00;;;;5060354;28;20200;-88
2023/07/02 00:30:55;;;;;;;3.87;3.47;;;;;16.70;96140.00;;;;5059962;28;20697;-87
2023/07/02 00:33:44;;;;;;;3.90;3.50;;;;;16.60;96133.00;;;;5059205;28;21757;-87
2023/07/02 00:36:33;;;;;;;7.53;3.63;;;;;16.60;96138.00;;;;5062832;28;20220;-88
2023/07/02 00:39:23;;;;;;;4.80;3.03;;;;;16.80;96131.00;;;;5064773;28;20196;-89
2023/07/02 00:42:12;;;;;;;6.77;3.97;;;;;16.60;96151.00;;;;5066019;28;20220;-88
2023/07/02 00:45:03;;;;;;;4.80;3.70;;;;;16.30;96136.00;;;;5063907;28;20553;-87
2023/07/02 00:47:54;;;;;;;4.20;3.70;;;;;16.70;96131.00;;;;5066862;28;20199;-88
2023/07/02 00:50:43;;;;;;;8.70;3.80;;;;;16.80;96138.00;;;;5062004;28;20224;-89
2023/07/02 00:53:33;;;;;;;7.13;3.20;;;;;16.80;96136.00;;;;5058953;28;20193;-88
2023/07/02 00:56:23;;;;;;;3.73;3.27;;;;;16.00;96134.00;;;;5064232;28;20224;-89
2023/07/02 00:59:12;;;;;;;6.80;3.33;;;;;16.20;96142.00;;;;5065267;28;20196;-88
2023/07/02 01:02:02;;;;;;;4.57;3.40;;;;;16.10;96138.00;;;;5059586;28;20224;-86
2023/07/02 01:04:52;;;;;;;3.83;3.43;;;;;16.40;96139.00;;;;5061728;28;20200;-88
2023/07/02 01:07:41;;;;;;;8.00;3.67;;;;;16.90;96144.00;;;;5061227;28;20204;-87
2023/07/02 01:10:30;;;;;;;4.33;3.17;;;;;16.40;96142.00;;;;5063042;28;20207;-87
2023/07/02 01:13:22;;;;;;;4.80;3.40;;;;;16.40;96139.00;;;;5061130;28;20218;-89
2023/07/02 01:16:11;;;;;;;6.30;3.43;;;;;16.30;96137.00;;;;5066457;28;20224;-87
2023/07/02 01:19:05;;;;;;;3.47;3.17;;;;;16.40;96137.00;;;;5066858;28;20582;-88
2023/07/02 01:21:55;;;;;;;4.50;4.10;;;;;16.10;96131.00;;;;5057737;28;20219;-87
2023/07/02 01:24:46;;;;;;;5.07;3.90;;;;;16.30;96134.00;;;;5058564;28;20201;-87
2023/07/02 01:27:36;;;;;;;5.37;4.00;;;;;16.30;96136.00;;;;5062904;28;20196;-88
2023/07/02 01:30:25;;;;;;;4.37;3.83;;;;;16.50;96133.00;;;;5064683;28;20748;-89
2023/07/02 01:33:14;;;;;;;4.83;3.23;;;;;16.40;96132.00;;;;5060200;28;20203;-88
2023/07/02 01:36:03;;;;;;;4.50;3.40;;;;;16.40;96136.00;;;;5063207;28;20270;-87
2023/07/02 01:38:54;;;;;;;3.23;2.67;;;;;16.40;96141.00;;;;5059554;28;20218;-88
2023/07/02 01:41:45;;;;;;;4.77;3.10;;;;;16.20;96139.00;;;;5061922;28;20228;-87
2023/07/02 01:44:34;;;;;;;3.77;3.33;;;;;16.30;96144.00;;;;5061099;28;20606;-88
2023/07/02 01:47:23;;;;;;;4.47;4.07;;;;;16.60;96132.00;;;;5064038;28;20208;-87
2023/07/02 01:50:12;;;;;;;5.47;3.00;;;;;16.50;96129.00;;;;5060739;28;20318;-88
2023/07/02 01:53:01;;;;;;;5.30;3.73;;;;;16.50;96131.00;;;;5056112;28;20222;-87
2023/07/02 01:55:52;;;;;;;3.80;3.50;;;;;16.40;96137.00;;;;5062793;28;20490;-87
2023/07/02 01:58:41;;;;;;;4.80;3.67;;;;;16.60;96133.00;;;;5059103;28;20204;-87
2023/07/02 02:01:30;;;;;;;4.30;3.00;;;;;16.50;96136.00;;;;5058539;28;20224;-87
2023/07/02 02:04:19;;;;;;;4.43;3.07;;;;;16.30;96141.00;;;;5065753;28;20204;-88
2023/07/02 02:07:08;;;;;;;5.27;3.43;;;;;16.20;96139.00;;;;5059879;28;20199;-87
2023/07/02 02:09:57;;;;;;;3.37;2.97;;;;;16.30;96139.00;;;;5058156;28;20207;-87
2023/07/02 02:12:48;;;;;;;5.13;3.73;;;;;16.40;96146.00;;;;5062105;28;20210;-87
2023/07/02 02:15:37;;;;;;;4.63;4.03;;;;;16.30;96147.00;;;;5063280;28;20232;-88
2023/07/02 02:18:26;;;;;;;5.47;3.30;;;;;16.40;96144.00;;;;5063474;28;20195;-87
2023/07/02 02:21:15;;;;;;;5.33;3.67;;;;;16.20;96138.00;;;;5058129;28;20224;-89
2023/07/02 02:24:05;;;;;;;7.77;3.20;;;;;16.10;96134.00;;;;5059679;28;20192;-87
2023/07/02 02:26:54;;;;;;;7.37;3.50;;;;;16.20;96141.00;;;;5058141;28;20215;-87
2023/07/02 02:29:44;;;;;;;4.10;3.17;;;;;16.10;96133.00;;;;5054959;28;20575;-88
2023/07/02 02:32:33;;;;;;;4.90;3.60;;;;;16.20;96133.00;;;;5062198;28;20602;-88
2023/07/02 02:35:23;;;;;;;3.93;2.87;;;;;15.90;96137.00;;;;5062149;28;20200;-87
2023/07/02 02:38:12;;;;;;;6.60;3.20;;;;;15.80;96134.00;;;;5060078;28;20613;-89
2023/07/02 02:41:02;;;;;;;4.00;3.27;;;;;15.80;96131.00;;;;5064603;28;20645;-87
2023/07/02 02:43:51;;;;;;;3.47;2.90;;;;;15.90;96133.00;;;;5065470;28;20582;-87
2023/07/02 02:46:41;;;;;;;5.07;3.17;;;;;15.90;96132.00;;;;5060619;28;20192;-87
2023/07/02 02:49:30;;;;;;;5.47;4.10;;;;;15.90;96138.00;;;;5066767;28;20215;-87
2023/07/02 02:52:19;;;;;;;10.23;4.27;;;;;15.80;96135.00;;;;5066484;28;20246;-87
2023/07/02 02:55:10;;;;;;;7.50;4.17;;;;;15.60;96135.00;;;;5069146;28;20838;-89
2023/07/02 02:57:59;;;;;;;5.83;3.77;;;;;15.10;96140.00;;;;5068428;28;20762;-89
2023/07/02 03:00:49;;;;;;;4.07;3.67;;;;;15.10;96138.00;;;;5065923;28;20224;-87
2023/07/02 03:03:45;;;;;;;4.57;3.80;;;;;15.30;96144.00;;;;5063700;28;20193;-87
2023/07/02 03:06:34;;;;;;;4.73;3.73;;;;;15.30;96150.00;;;;5060520;28;20211;-87
2023/07/02 03:09:23;;;;;;;5.93;4.07;;;;;15.60;96150.00;;;;5069118;28;20192;-87
2023/07/02 03:12:12;;;;;;;6.60;4.20;;;;;15.30;96156.00;;;;5061201;28;20224;-87
2023/07/02 03:15:01;;;;;;;6.17;3.87;;;;;15.40;96144.00;;;;5061720;28;20203;-87
2023/07/02 03:17:51;;;;;;;5.27;4.13;;;;;15.40;96146.00;;;;5069756;28;20289;-87
2023/07/02 03:20:41;;;;;;;6.63;4.10;;;;;14.90;96157.00;;;;5062524;28;20270;-88
2023/07/02 03:23:30;;;;;;;6.73;4.37;;;;;14.70;96155.00;;;;5059906;28;20337;-86
2023/07/02 03:26:20;;;;;;;7.43;5.25;;;;;14.60;96158.00;;;;5062053;28;20400;-86
2023/07/02 03:29:09;;;;;;;5.40;4.53;;;;;15.00;96155.00;;;;5063711;28;20400;-87
2023/07/02 03:31:58;;;;;;;5.85;4.72;;;;;15.00;96162.00;;;;5061525;28;20494;-87
2023/07/02 03:34:47;;;;;;;4.97;4.45;;;;;14.40;96157.00;;;;5065663;28;20400;-86
2023/07/02 03:37:38;;;;;;;6.07;4.07;;;;;15.10;96154.00;;;;5063233;28;20238;-86
2023/07/02 03:40:27;;;;;;;4.57;3.90;;;;;15.20;96163.00;;;;5066226;28;20582;-87
2023/07/02 03:43:16;;;;;;;8.83;3.97;;;;;15.60;96154.00;;;;5066062;28;20208;-87
2023/07/02 03:46:05;;;;;;;5.13;3.83;;;;;15.60;96150.00;;;;5066391;28;20233;-88
2023/07/02 03:48:54;;;;;;;7.80;4.57;;;;;15.80;96163.00;;;;5066418;28;20211;-86
2023/07/02 03:51:43;;;;;;;5.00;3.70;;;;;15.80;96168.00;;;;5067426;28;20223;-86
2023/07/02 03:54:33;;;;;;;8.23;3.53;;;;;15.60;96161.00;;;;5063476;28;20544;-86
2023/07/02 03:57:23;;;;;;;4.70;3.40;;;;;15.10;96165.00;;;;5063109;28;20223;-85
2023/07/02 04:00:12;;;;;;;8.00;3.93;;;;;15.00;96166.00;;;;5067626;28;20200;-87
2023/07/02 04:03:02;;;;;;;5.07;4.57;;;;;15.30;96167.00;;;;5070703;28;20245;-87
2023/07/02 04:05:51;;;;;;;5.57;3.77;;;;;15.40;96166.00;;;;5064358;28;20204;-87
2023/07/02 04:08:40;;;;;;;5.03;4.27;;;;;15.40;96167.00;;;;5065507;28;20665;-87
2023/07/02 04:11:30;;;;;;;6.30;4.73;;;;;15.40;96169.00;;;;5060955;28;20222;-87
2023/07/02 04:14:19;;;;;;;5.63;3.87;;;;;15.40;96181.00;;;;5060362;28;20593;-87
2023/07/02 04:17:08;;;;;;;6.20;4.03;;;;;15.50;96184.00;;;;5063308;28;20222;-87
2023/07/02 04:20:00;;;;;;;5.80;4.03;;;;;15.30;96180.00;;;;5068190;28;20213;-86
2023/07/02 04:22:49;;;;;;;5.83;3.70;;;;;15.80;96186.00;;;;5063022;28;20192;-88
2023/07/02 04:25:38;;;;;;;6.33;4.07;;;;;16.00;96183.00;;;;5066370;28;20234;-87
2023/07/02 04:28:29;;;;;;;5.00;4.50;;;;;15.90;96188.00;;;;5056741;28;20208;-87
2023/07/02 04:31:19;;;;;;;5.60;4.90;;;;;16.20;96186.00;;;;5065848;28;20220;-87
2023/07/02 04:34:08;;;;;;;5.67;4.27;;;;;16.20;96203.00;;;;5067440;28;20200;-87
2023/07/02 04:36:57;;;;;;;6.87;4.27;;;;;16.30;96193.00;;;;5065950;28;20229;-87
2023/07/02 04:39:46;;;;;;;4.83;3.60;;;;;15.90;96193.00;;;;5070903;28;20253;-87
2023/07/02 04:42:37;;;;;;;8.13;4.43;;;;;15.80;96193.00;;;;5059390;28;20319;-87
2023/07/02 04:45:35;;;;;;;4.97;4.47;;;;;16.10;96191.00;;;;5063338;28;20644;-88
2023/07/02 04:48:24;;;;;;;4.77;4.20;;;;;16.10;96195.00;;;;5062478;28;20242;-88
2023/07/02 04:51:13;;;;;;;6.73;4.23;;;;;16.10;96195.00;;;;5066328;28;20887;-88
2023/07/02 04:54:02;;;;;;;4.93;3.73;;;;;16.10;96196.00;;;;5056551;28;20200;-88
2023/07/02 04:56:51;;;;;;;8.10;5.03;;;;;16.30;96201.00;;;;5065485;28;20232;-87
2023/07/02 04:59:42;;;;;;;4.20;3.77;;;;;16.10;96203.00;;;;5060403;28;20406;-87
2023/07/02 05:02:32;;;;;;;5.90;3.90;;;;;16.20;96213.00;;;;5060372;28;20297;-87
2023/07/02 05:05:21;;;;;;;6.23;4.80;;;;;16.10;96201.00;;;;5061094;28;20204;-87
2023/07/02 05:08:11;;;;;;;5.83;4.70;;;;;16.40;96209.00;;;;5063763;28;20192;-87
2023/07/02 05:11:00;;;;;;;5.50;3.67;;;;;16.40;96208.00;;;;5061856;28;20235;-88
2023/07/02 05:13:49;;;;;;;6.67;4.30;;;;;16.60;96219.00;;;;5057816;28;20207;-87
2023/07/02 05:16:38;;;;;;;5.10;4.23;;;;;16.90;96220.00;;;;5058057;28;20208;-88
2023/07/02 05:19:28;;;;;;;6.90;4.63;;;;;16.90;96219.00;;;;5066468;28;20297;-87
2023/07/02 05:22:17;;;;;;;5.60;4.97;;;;;16.90;96223.00;;;;5063845;28;20221;-86
2023/07/02 05:25:08;;;;;;;5.73;4.40;;;;;17.20;96228.00;;;;5062967;28;20196;-88
2023/07/02 05:27:57;;;;;;;5.03;4.23;;;;;17.10;96237.00;;;;5062879;28;20668;-87
2023/07/02 05:30:46;;;;;;;4.43;3.43;;;;;17.30;96231.00;;;;5061645;28;20700;-88
2023/07/02 05:33:35;;;;;;;6.33;4.20;;;;;17.50;96245.00;;;;5061849;28;20203;-88
2023/07/02 05:36:26;;;;;;;5.00;4.40;;;;;17.40;96236.00;;;;5059789;28;20200;-86
2023/07/02 05:39:15;;;;;;;6.00;3.67;;;;;17.40;96236.00;;;;5063012;28;20196;-87
2023/07/02 05:42:04;;;;;;;5.47;4.40;;;;;17.70;96237.00;;;;5064811;28;20723;-87
2023/07/02 05:44:53;;;;;;;6.43;5.47;;;;;17.70;96232.00;;;;5060418;28;20580;-87
2023/07/02 05:47:42;;;;;;;7.50;4.63;;;;;17.70;96247.00;;;;5067724;28;20206;-88
2023/07/02 05:50:32;;;;;;;7.87;4.37;;;;;17.90;96239.00;;;;5061697;28;20209;-88
2023/07/02 05:53:22;;;;;;;7.53;4.33;;;;;17.90;96241.00;;;;5066894;28;20206;-87
2023/07/02 05:56:11;;;;;;;6.03;5.20;;;;;17.90;96246.00;;;;5062994;28;20858;-88
2023/07/02 05:59:00;;;;;;;4.67;3.67;;;;;17.70;96248.00;;;;5065207;28;20227;-88
2023/07/02 06:01:49;;;;;;;4.43;3.97;;;;;17.90;96248.00;;;;5053220;28;20220;-87
2023/07/02 06:04:38;;;;;;;6.37;4.30;;;;;18.10;96261.00;;;;5056460;28;20199;-89
2023/07/02 06:07:28;;;;;;;8.27;5.33;;;;;18.20;96257.00;;;;5064011;28;20219;-87
2023/07/02 06:10:18;;;;;;;6.23;5.27;;;;;18.50;96253.00;;;;5059646;28;20270;-87
2023/07/02 06:13:07;;;;;;;8.87;5.53;;;;;18.70;96243.00;;;;5064247;28;20207;-87
2023/07/02 06:15:57;;;;;;;9.03;6.27;;;;;19.40;96245.00;;;;5061422;28;20204;-87
2023/07/02 06:18:46;;;;;;;6.37;5.10;;;;;19.90;96246.00;;;;5063606;28;20224;-87
2023/07/02 06:21:35;;;;;;;8.30;6.30;;;;;20.50;96246.00;;;;5062947;28;20254;-87
2023/07/02 06:24:24;;;;;;;9.47;7.40;;;;;21.00;96251.00;;;;5061099;28;20208;-86
2023/07/02 06:27:14;;;;;;;10.23;8.13;;;;;21.50;96249.00;;;;5061091;28;20581;-87
2023/07/02 06:30:04;;;;;;;13.10;8.73;;;;;21.60;96263.00;;;;5059182;28;20205;-88
2023/07/02 06:32:54;;;;;;;8.93;8.00;;;;;21.70;96255.00;;;;5065006;28;20204;-85
2023/07/02 06:35:43;;;;;;;9.77;7.10;;;;;21.80;96252.00;;;;5056525;28;20212;-87
2023/07/02 06:38:32;;;;;;;9.00;7.27;;;;;22.40;96252.00;;;;5063751;28;20301;-87
2023/07/02 06:41:21;;;;;;;10.27;7.43;;;;;22.80;96249.00;;;;5061455;28;20232;-87
2023/07/02 06:44:12;;;;;;;12.17;6.80;;;;;23.00;96258.00;;;;5060741;28;20196;-87
2023/07/02 06:47:01;;;;;;;7.43;6.10;;;;;23.30;96262.00;;;;5060702;28;20223;-88
2023/07/02 06:49:50;;;;;;;7.47;6.37;;;;;23.20;96270.00;;;;5066454;28;20574;-87
2023/07/02 06:52:39;;;;;;;7.50;6.23;;;;;23.00;96272.00;;;;5055432;28;20220;-86
2023/07/02 06:55:28;;;;;;;10.40;6.53;;;;;22.50;96278.00;;;;5057552;28;20192;-87
2023/07/02 06:58:17;;;;;;;7.03;6.10;;;;;22.50;96270.00;;;;5061101;28;20225;-87
2023/07/02 07:01:09;;;;;;;10.60;5.53;;;;;22.20;96283.00;;;;5061041;28;20232;-86
2023/07/02 07:03:58;;;;;;;8.27;6.27;;;;;22.60;96272.00;;;;5059067;28;20215;-85
2023/07/02 07:06:48;;;;;;;8.07;6.70;;;;;22.70;96286.00;;;;5058660;28;20200;-84
2023/07/02 07:09:37;;;;;;;8.07;6.60;;;;;22.80;96297.00;;;;5055289;28;20697;-84
2023/07/02 07:12:26;;;;;;;6.10;5.37;;;;;23.00;96300.00;;;;5063868;28;20597;-87
2023/07/02 07:15:15;;;;;;;7.57;6.47;;;;;23.10;96303.00;;;;5061442;28;20204;-88
2023/07/02 07:18:06;;;;;;;6.77;5.90;;;;;23.00;96300.00;;;;5058446;28;20225;-88
2023/07/02 07:20:58;;;;;;;6.97;6.23;;;;;23.20;96313.00;;;;5063732;28;20821;-87
2023/07/02 07:23:47;;;;;;;6.20;5.60;;;;;23.30;96314.00;;;;5059088;28;20696;-88
2023/07/02 07:26:37;;;;;;;6.70;5.63;;;;;23.40;96306.00;;;;5060997;28;20307;-87
2023/07/02 07:29:26;;;;;;;7.03;5.50;;;;;23.60;96318.00;;;;5060419;28;20246;-86
2023/07/02 07:32:16;;;;;;;8.87;5.40;;;;;23.70;96310.00;;;;5055993;28;20692;-87
2023/07/02 07:35:07;;;;;;;6.87;5.70;;;;;23.80;96307.00;;;;5063987;28;20211;-87
2023/07/02 07:37:56;;;;;;;5.40;4.90;;;;;24.00;96304.00;;;;5066806;28;20748;-87
2023/07/02 07:40:46;;;;;;;6.13;4.53;;;;;24.20;96302.00;;;;5061505;28;20216;-87
2023/07/02 07:43:36;;;;;;;5.43;4.53;;;;;24.60;96298.00;;;;5065291;28;20210;-87
2023/07/02 07:46:25;;;;;;;4.37;3.90;;;;;24.80;96298.00;;;;5063633;28;20585;-88
2023/07/02 07:49:14;;;;;;;5.33;4.50;;;;;24.50;96291.00;;;;5061646;28;20685;-89
2023/07/02 07:52:06;;;;;;;5.40;3.93;;;;;24.30;96280.00;;;;5060932;28;20221;-88
2023/07/02 07:54:56;;;;;;;4.63;4.13;;;;;24.70;96268.00;;;;5062974;28;20204;-87
2023/07/02 07:57:45;;;;;;;4.93;4.47;;;;;24.60;96283.00;;;;5061023;28;20200;-88
2023/07/02 08:00:34;;;;;;;7.30;4.23;;;;;24.30;96280.00;;;;5059283;28;20200;-86
2023/07/02 08:03:24;;;;;;;4.57;3.77;;;;;24.30;96280.00;;;;5063177;28;20207;-87
2023/07/02 08:06:13;;;;;;;4.60;3.37;;;;;24.40;96280.00;;;;5060629;28;20204;-85
2023/07/02 08:09:04;;;;;;;4.03;3.63;;;;;24.60;96277.00;;;;5067137;28;20215;-88
2023/07/02 08:11:53;;;;;;;4.90;3.80;;;;;25.20;96281.00;;;;5061125;28;20227;-89
2023/07/02 08:14:45;;;;;;;4.23;3.00;;;;;25.70;96288.00;;;;5063858;28;20196;-88
2023/07/02 08:17:34;;;;;;;4.83;3.47;;;;;26.20;96272.00;;;;5057231;28;20205;-88
2023/07/02 08:20:23;;;;;;;2.70;2.30;;;;;26.80;96270.00;;;;5064507;28;20216;-88
2023/07/02 08:23:12;;;;;;;3.67;2.83;;;;;26.70;96278.00;;;;5065718;28;20207;-89
2023/07/02 08:26:03;;;;;;;2.87;2.57;;;;;26.70;96274.00;;;;5064011;28;20223;-88
2023/07/02 08:28:52;;;;;;;3.00;2.70;;;;;26.70;96275.00;;;;5057205;28;20211;-85
2023/07/02 08:31:42;;;;;;;3.00;2.73;;;;;27.10;96269.00;;;;5065838;28;20223;-83
2023/07/02 08:34:32;;;;;;;2.57;2.37;;;;;27.40;96282.00;;;;5063125;28;20209;-85
2023/07/02 08:37:22;;;;;;;3.07;2.63;;;;;27.30;96275.00;;;;5063999;28;20229;-82
2023/07/02 08:40:18;;;;;;;2.70;2.40;;;;;27.70;96280.00;;;;5060704;28;20222;-84
2023/07/02 08:43:08;;;;;;;2.30;2.10;;;;;28.00;96273.00;;;;5066562;28;20954;-84
2023/07/02 08:45:58;;;;;;;3.37;1.93;;;;;28.00;96272.00;;;;5064795;28;20228;-88
2023/07/02 08:48:48;;;;;;;1.90;1.70;;;;;28.00;96255.00;;;;5060971;28;20197;-89
2023/07/02 08:51:38;;;;;;;2.07;1.87;;;;;28.50;96262.00;;;;5066123;28;20236;-87
2023/07/02 08:54:27;;;;;;;2.10;1.90;;;;;28.10;96282.00;;;;5064290;28;20203;-87
2023/07/02 08:57:16;;;;;;;2.03;1.60;;;;;28.20;96268.00;;;;5065469;28;20207;-87
2023/07/02 09:00:12;;;;;;;1.70;1.60;;;;;28.10;96279.00;;;;5060301;28;20237;-88
2023/07/02 09:03:11;;;;;;;1.83;1.73;;;;;28.50;96273.00;;;;5063593;28;20216;-88
2023/07/02 09:06:00;;;;;;;1.57;1.47;;;;;28.00;96255.00;;;;5065896;28;20218;-87
2023/07/02 09:08:49;;;;;;;2.20;1.73;;;;;28.90;96260.00;;;;5062726;28;20206;-87
2023/07/02 09:11:49;;;;;;;1.57;1.47;;;;;29.00;96258.00;;;;5064616;28;20217;-88
2023/07/02 09:14:38;;;;;;;1.97;1.77;;;;;29.40;96265.00;;;;5063442;28;20269;-87
2023/07/02 09:17:33;;;;;;;2.47;1.23;;;;;29.80;96272.00;;;;5058810;28;20214;-88
2023/07/02 09:20:22;;;;;;;1.80;1.37;;;;;30.00;96273.00;;;;5058788;28;20221;-89
2023/07/02 09:23:11;;;;;;;1.20;1.10;;;;;29.40;96283.00;;;;5063585;28;20245;-89
2023/07/02 09:26:00;;;;;;;1.43;1.33;;;;;28.20;96289.00;;;;5061274;28;20272;-85
2023/07/02 09:28:49;;;;;;;1.50;1.40;;;;;27.50;96288.00;;;;5060400;28;20205;-85
2023/07/02 09:31:46;;;;;;;1.90;1.10;;;;;28.30;96287.00;;;;5062212;28;20221;-88
2023/07/02 09:34:42;;;;;;;1.80;1.53;;;;;28.80;96296.00;;;;5063802;28;20200;-88
2023/07/02 09:37:31;;;;;;;1.93;1.77;;;;;28.40;96300.00;;;;5061173;28;20221;-87
2023/07/02 09:40:20;;;;;;;2.93;1.73;;;;;28.40;96299.00;;;;5062981;28;20217;-88
2023/07/02 09:43:09;;;;;;;1.43;1.10;;;;;27.70;96299.00;;;;5060032;28;20685;-88
2023/07/02 09:45:59;;;;;;;1.33;1.23;;;;;27.00;96302.00;;;;5059602;28;20797;-88
2023/07/02 09:48:48;;;;;;;1.87;1.30;;;;;27.00;96306.00;;;;5058993;28;20216;-86
2023/07/02 09:51:38;;;;;;;1.83;1.33;;;;;27.60;96299.00;;;;5057104;28;20705;-87
2023/07/02 09:54:28;;;;;;;1.43;1.20;;;;;27.90;96306.00;;;;5053683;28;20215;-88
2023/07/02 09:57:17;;;;;;;1.83;1.30;;;;;28.10;96304.00;;;;5053355;28;20200;-87
2023/07/02 10:00:09;;;;;;;1.57;1.37;;;;;28.10;96314.00;;;;5058840;28;20231;-87
2023/07/02 10:03:00;;;;;;;1.20;1.10;;;;;27.80;96308.00;;;;5056980;28;20213;-88
2023/07/02 10:05:49;;;;;;;2.77;1.43;;;;;27.20;96314.00;;;;5061205;28;20209;-86
2023/07/02 10:08:39;;;;;;;1.20;1.03;;;;;27.60;96312.00;;;;5052870;28;20215;-87
2023/07/02 10:11:35;;;;;;;1.47;1.27;;;;;28.00;96314.00;;;;5052440;28;20221;-87
2023/07/02 10:14:24;;;;;;;1.27;1.17;;;;;27.70;96318.00;;;;5049007;28;20208;-87
2023/07/02 10:17:28;;;;;;;1.83;1.53;;;;;27.00;96326.00;;;;5063500;28;20596;-87
2023/07/02 10:20:17;;;;;;;1.20;1.00;;;;;26.80;96314.00;;;;5059095;28;20225;-88
2023/07/02 10:23:08;;;;;;;1.27;1.00;;;;;26.70;96320.00;;;;5059743;28;20232;-88
2023/07/02 10:25:58;;;;;;;1.37;1.20;;;;;26.80;96319.00;;;;5058322;28;20217;-88
2023/07/02 10:28:58;;;;;;;1.40;1.13;;;;;27.40;96320.00;;;;5056086;28;20210;-85
2023/07/02 10:31:50;;;;;;;0.90;0.83;;;;;27.90;96297.00;;;;5049503;28;20698;-86
2023/07/02 10:34:39;;;;;;;1.37;1.10;;;;;27.10;96312.00;;;;5058681;28;20204;-86
2023/07/02 10:37:28;;;;;;;1.13;1.10;;;;;28.00;96321.00;;;;5057019;28;20202;-85
2023/07/02 10:40:17;;;;;;;1.87;1.43;;;;;28.30;96319.00;;;;5050535;28;20230;-87
2023/07/02 10:43:07;;;;;;;2.27;1.30;;;;;28.40;96305.00;;;;5051937;28;20208;-85
2023/07/02 10:45:57;;;;;;;1.03;1.00;;;;;28.80;96311.00;;;;5064009;28;20208;-86
2023/07/02 10:48:53;;;;;;;1.13;1.00;;;;;28.90;96306.00;;;;5059385;28;20197;-86
2023/07/02 10:51:42;;;;;;;1.43;1.23;;;;;29.70;96287.00;;;;5059151;28;20212;-86
2023/07/02 10:54:41;;;;;;;1.57;1.13;;;;;30.10;96247.00;;;;5063085;28;20204;-86
2023/07/02 10:57:30;;;;;;;1.30;1.20;;;;;29.20;96287.00;;;;5048028;28;20198;-85
2023/07/02 11:00:21;;;;;;;1.40;1.30;;;;;30.30;96288.00;;;;5060661;28;20223;-86
2023/07/02 11:03:18;;;;;;;2.23;1.40;;;;;30.50;96253.00;;;;5065477;28;20897;-85
2023/07/02 11:06:07;;;;;;;1.37;1.10;;;;;32.00;96252.00;;;;5051794;28;20683;-85
2023/07/02 11:08:57;;;;;;;2.07;1.47;;;;;31.50;96307.00;;;;5057603;28;20215;-85
2023/07/02 11:11:55;;;;;;;1.23;1.13;;;;;29.70;96309.00;;;;5057166;28;20597;-86
2023/07/02 11:14:44;;;;;;;3.40;1.20;;;;;29.50;96310.00;;;;5055397;28;20211;-85
2023/07/02 11:17:34;;;;;;;1.20;0.93;;;;;29.40;96325.00;;;;5058633;28;20802;-85
2023/07/02 11:20:24;;;;;;;1.53;1.17;;;;;28.40;96324.00;;;;5056594;28;20286;-85
2023/07/02 11:23:19;;;;;;;1.77;0.90;;;;;28.00;96319.00;;;;5062649;28;20751;-85
2023/07/02 11:26:08;;;;;;;2.40;1.10;;;;;28.00;96317.00;;;;5060601;28;20225;-85
2023/07/02 11:28:57;;;;;;;1.80;1.00;;;;;28.00;96312.00;;;;5051324;28;20371;-84
2023/07/02 11:31:47;;;;;;;1.13;1.03;;;;;27.80;96314.00;;;;5061779;28;20237;-84
2023/07/02 11:34:37;;;;;;;1.10;1.00;;;;;27.80;96317.00;;;;5058773;28;20639;-85
2023/07/02 11:37:28;;;;;;;2.43;1.07;;;;;27.70;96324.00;;;;5066737;28;20303;-84
2023/07/02 11:40:19;;;;;;;1.20;1.10;;;;;27.70;96321.00;;;;5051875;28;20236;-85
2023/07/02 11:43:09;;;;;;;1.30;1.20;;;;;27.50;96314.00;;;;5067199;28;20302;-85
2023/07/02 11:45:58;;;;;;;2.03;0.80;;;;;27.40;96333.00;;;;5065160;28;20374;-85
2023/07/02 11:48:47;;;;;;;0.90;0.90;;;;;27.10;96335.00;;;;5057156;28;20213;-85
2023/07/02 11:51:39;;;;;;;1.50;1.10;;;;;26.20;96341.00;;;;5061922;28;20222;-85
2023/07/02 11:54:28;;;;;;;2.33;1.17;;;;;24.90;96348.00;;;;5057154;28;20291;-85
2023/07/02 11:57:17;;;;;;;2.27;1.20;;;;;23.90;96357.00;;;;5063193;28;20204;-86
2023/07/02 12:00:07;;;;;;;1.03;0.97;;;;;23.20;96362.00;;;;5066278;28;20216;-85
2023/07/02 12:02:56;;;;;;;2.83;1.73;;;;;22.50;96365.00;;;;5059351;28;20200;-84
2023/07/02 12:05:46;;;;;;;4.83;1.60;;;;;22.40;96357.00;;;;5053775;28;20591;-85
2023/07/02 12:08:37;;;;;;;2.23;1.53;;;;;22.10;96354.00;;;;5059151;28;20200;-85
2023/07/02 12:11:26;;;;;;;2.70;1.70;;;;;22.50;96358.00;;;;5058412;28;20608;-86
2023/07/02 12:14:15;;;;;;;3.93;2.10;;;;;22.20;96359.00;;;;5057277;28;20208;-85
2023/07/02 12:17:05;;;;;;;5.37;2.50;;;;;22.00;96349.00;;;;5059223;28;20200;-87
2023/07/02 12:19:54;;;;;;;3.13;2.20;;;;;22.00;96348.00;;;;5061752;28;20217;-84
2023/07/02 12:22:44;;;;;;;4.17;2.57;;;;;22.20;96345.00;;;;5065502;28;20200;-85
2023/07/02 12:25:34;;;;;;;4.33;2.57;;;;;22.10;96344.00;;;;5060661;28;20212;-85
2023/07/02 12:28:24;;;;;;;3.13;2.30;;;;;22.10;96346.00;;;;5063285;28;20564;-85
2023/07/02 12:31:13;;;;;;;2.30;2.10;;;;;22.10;96345.00;;;;5058856;28;20223;-84
2023/07/02 12:34:03;;;;;;;3.57;2.67;;;;;22.50;96334.00;;;;5055956;28;20212;-86
2023/07/02 12:36:53;;;;;;;5.10;2.90;;;;;23.00;96324.00;;;;5065304;28;20211;-87
2023/07/02 12:39:42;;;;;;;2.63;2.40;;;;;23.10;96302.00;;;;5065132;28;20592;-86
2023/07/02 12:42:32;;;;;;;2.60;1.83;;;;;24.10;96301.00;;;;5061820;28;20221;-87
2023/07/02 12:45:21;;;;;;;2.60;2.40;;;;;23.70;96322.00;;;;5058649;28;20212;-86
2023/07/02 12:48:10;;;;;;;3.77;2.10;;;;;26.00;96254.00;;;;5062589;28;20294;-87
2023/07/02 12:51:01;;;;;;;4.37;2.33;;;;;27.30;96251.00;;;;5062654;28;20224;-88
2023/07/02 12:53:50;;;;;;;2.07;1.80;;;;;29.20;96257.00;;;;5065481;28;20223;-87
2023/07/02 12:56:39;;;;;;;2.73;1.60;;;;;30.30;96257.00;;;;5060219;28;20230;-87
2023/07/02 12:59:29;;;;;;;2.20;1.40;;;;;31.10;96261.00;;;;5058068;28;20199;-88
2023/07/02 13:02:18;;;;;;;2.93;2.40;;;;;31.90;96255.00;;;;5067887;28;20230;-88
2023/07/02 13:05:08;;;;;;;2.13;1.33;;;;;33.20;96261.00;;;;5061247;28;20229;-88
2023/07/02 13:07:57;;;;;;;2.88;1.40;;;;;32.10;96306.00;;;;5063513;28;20713;-88
2023/07/02 13:10:46;;;;;;;1.38;1.23;;;;;31.70;96302.00;;;;5059552;28;20226;-88
2023/07/02 13:13:37;;;;;;;1.50;1.40;;;;;31.50;96313.00;;;;5061715;28;20230;-85
2023/07/02 13:16:27;;;;;;;1.48;1.30;;;;;31.10;96314.00;;;;5056722;28;20216;-85
2023/07/02 13:19:16;;;;;;;1.80;1.33;;;;;31.20;96312.00;;;;5061754;28;20204;-85
2023/07/02 13:22:06;;;;;;;2.92;1.75;;;;;29.70;96313.00;;;;5057954;28;20815;-86
2023/07/02 13:24:55;;;;;;;1.27;1.10;;;;;28.60;96327.00;;;;5065220;28;20224;-85
2023/07/02 13:27:44;;;;;;;1.80;1.60;;;;;28.60;96316.00;;;;5058207;28;20216;-85
2023/07/02 13:30:33;;;;;;;1.40;1.30;;;;;27.40;96319.00;;;;5055399;28;20774;-85
2023/07/02 13:33:25;;;;;;;1.77;1.00;;;;;27.10;96327.00;;;;5057544;28;20205;-84
2023/07/02 13:36:15;;;;;;;2.37;1.60;;;;;27.20;96313.00;;;;5061469;28;20259;-84
2023/07/02 13:39:04;;;;;;;1.23;1.13;;;;;27.00;96309.00;;;;5063627;28;20857;-85
2023/07/02 13:41:53;;;;;;;2.00;1.57;;;;;26.90;96312.00;;;;5059734;28;20237;-84
2023/07/02 13:44:42;;;;;;;1.50;1.23;;;;;26.40;96318.00;;;;5061173;28;20263;-84
2023/07/02 13:47:31;;;;;;;1.73;1.40;;;;;25.90;96323.00;;;;5062137;28;20197;-85
2023/07/02 13:50:22;;;;;;;2.03;1.70;;;;;25.80;96322.00;;;;5066143;28;20197;-87
2023/07/02 13:53:11;;;;;;;1.73;1.63;;;;;25.50;96325.00;;;;5051187;28;20228;-88
2023/07/02 13:56:00;;;;;;;1.60;1.50;;;;;25.70;96326.00;;;;5054410;28;20197;-86
2023/07/02 13:59:02;;;;;;;2.50;1.57;;;;;25.40;96331.00;;;;5061394;28;20199;-86
2023/07/02 14:01:51;;;;;;;1.57;1.40;;;;;25.00;96330.00;;;;5062700;28;20227;-87
2023/07/02 14:04:41;;;;;;;2.53;1.90;;;;;24.50;96334.00;;;;5058476;28;20205;-87
2023/07/02 14:07:30;;;;;;;6.15;1.90;;;;;24.70;96336.00;;;;5060859;28;20219;-87
2023/07/02 14:10:19;;;;;;;1.93;1.70;;;;;24.90;96338.00;;;;5061960;28;20209;-87
2023/07/02 14:13:08;;;;;;;2.67;2.23;;;;;24.40;96336.00;;;;5059778;28;20208;-85